Terminal Aerodrome Forecast
Issued by NWS

Home | Current Version | Previous Version | Text Only | Print | Product List | Glossary Off
Versions: 1 2 3 4 5 6 7 8 9 10 11 12 13 14 15 16 17 18 19 20 21

000
FTUS43 KICT 230620 AAA
TAFHUT
TAF AMD
KHUT 230620Z 2306/2406 12009KT P6SM BKN018 OVC025
     FM231300 16017G22KT P6SM OVC013
     FM231500 15022G26KT P6SM OVC017
     FM231800 17025G35KT P6SM SCT025=

USA.gov is the U.S. government's official web portal to all federal, state and local government web resources and services.